Time;durP1;ratioP1;P1;durP2;ratioP2;P2;SDS_P1;SDS_P2;PMS_P1;PMS_P2;Temp;Humidity;BMP_temperature;BMP_pressure;BME280_temperature;BME280_humidity;BME280_pressure;Samples;Min_cycle;Max_cycle;Signal;HPM_P1;HPM_P2
2022/08/17 07:24:43;;;;;;;;;28.20;25.80;;;;;20.18;74.56;100297.59;4923209;27;1417164;-45
2022/08/17 07:27:19;;;;;;;;;23.00;23.00;;;;;19.83;74.14;100217.84;5032770;27;54037;-47
2022/08/17 07:30:01;;;;;;;;;26.60;22.80;;;;;20.44;73.63;100307.78;5134176;27;45376;-45
2022/08/17 07:32:30;;;;;;;;;25.40;23.40;;;;;20.56;73.50;100321.34;5116592;27;45621;-50
2022/08/17 07:35:26;;;;;;;;;25.60;24.80;;;;;20.69;73.30;100331.81;5134050;27;46572;-49
2022/08/17 07:38:12;;;;;;;;;27.20;25.00;;;;;20.78;72.98;100347.94;5134343;27;45750;-46
2022/08/17 07:40:41;;;;;;;;;21.60;21.60;;;;;20.85;72.59;100331.72;5134006;27;45437;-48
2022/08/17 07:43:12;;;;;;;;;21.00;19.60;;;;;20.89;72.25;100346.75;5093095;27;45614;-47
2022/08/17 07:48:37;;;;;;;;;22.40;22.00;;;;;21.03;72.17;100332.16;5098246;27;45905;-46
2022/08/17 07:51:15;;;;;;;;;23.80;21.40;;;;;21.09;72.15;100330.97;5094399;27;45409;-45
2022/08/17 07:53:41;;;;;;;;;22.60;22.20;;;;;21.13;71.90;100332.03;5067826;27;45341;-45
2022/08/17 07:56:06;;;;;;;;;21.00;19.25;;;;;21.12;71.73;100334.00;5096663;27;45998;-47
2022/08/17 07:58:32;;;;;;;;;25.00;23.75;;;;;21.20;71.39;100340.06;5113240;27;45422;-45
2022/08/17 08:01:08;;;;;;;;;23.00;21.00;;;;;21.22;71.28;100335.88;5094552;27;45475;-45
2022/08/17 08:03:39;;;;;;;;;24.40;23.80;;;;;21.26;70.97;100339.75;5113348;27;45355;-46
2022/08/17 08:06:21;;;;;;;;;24.60;22.00;;;;;21.25;70.91;100345.63;5077913;27;45984;-44
2022/08/17 08:08:52;;;;;;;;;22.60;22.40;;;;;21.25;70.86;100343.63;5112352;27;45289;-44
2022/08/17 08:11:31;;;;;;;;;21.40;20.40;;;;;21.04;70.47;100311.50;5112836;27;45350;-46
2022/08/17 08:14:19;;;;;;;;;22.20;22.20;;;;;21.16;70.87;100339.84;5094418;27;45603;-45
2022/08/17 08:17:04;;;;;;;;;20.40;19.40;;;;;21.29;70.66;100357.03;5112041;27;46746;-45
2022/08/17 08:19:29;;;;;;;;;19.20;19.20;;;;;21.28;70.55;100364.53;5100902;27;45531;-45
2022/08/17 08:22:18;;;;;;;;;22.25;18.25;;;;;21.25;70.48;100363.16;5100811;27;45736;-45
2022/08/17 08:24:58;;;;;;;;;21.60;20.00;;;;;21.34;70.86;100374.53;5128542;27;45496;-45
2022/08/17 08:27:43;;;;;;;;;28.20;25.20;;;;;21.41;70.58;100365.84;5121641;27;46663;-46
2022/08/17 08:30:12;;;;;;;;;18.60;18.60;;;;;21.47;70.08;100359.06;5109473;27;45460;-44
2022/08/17 08:32:47;;;;;;;;;20.40;20.00;;;;;21.57;69.78;100360.94;5127707;27;45907;-45
2022/08/17 08:35:39;;;;;;;;;21.60;19.00;;;;;21.63;69.78;100359.75;5105910;27;45606;-45
2022/08/17 08:38:22;;;;;;;;;18.00;17.80;;;;;21.69;69.39;100359.66;5089001;27;46159;-45
2022/08/17 08:41:00;;;;;;;;;25.00;21.40;;;;;21.77;68.94;100357.09;5095629;27;45799;-49
2022/08/17 08:43:44;;;;;;;;;25.00;19.00;;;;;21.84;68.82;100361.47;5084009;27;45474;-47
2022/08/17 08:46:38;;;;;;;;;22.20;21.40;;;;;21.88;68.58;100360.59;5095513;27;45504;-46
2022/08/17 08:49:41;;;;;;;;;19.00;18.00;;;;;21.90;68.42;100372.31;5097926;27;45489;-45
2022/08/17 08:52:24;;;;;;;;;20.80;19.00;;;;;21.90;67.43;100377.06;5101271;27;45795;-46
2022/08/17 08:54:55;;;;;;;;;22.60;22.00;;;;;21.82;67.50;100364.56;5110189;27;45539;-45
2022/08/17 08:57:39;;;;;;;;;18.20;16.80;;;;;21.85;67.92;100360.34;5093362;27;45388;-45
2022/08/17 09:00:13;;;;;;;;;21.60;21.20;;;;;21.92;68.13;100372.00;5114040;27;46612;-46
2022/08/17 09:03:07;;;;;;;;;21.60;21.00;;;;;21.99;68.07;100368.84;5092699;27;45421;-46
2022/08/17 09:05:47;;;;;;;;;24.20;21.60;;;;;22.01;68.15;100367.44;5113274;27;45529;-45
2022/08/17 09:08:34;;;;;;;;;19.80;19.80;;;;;21.91;67.65;100353.56;5107261;27;45913;-45
2022/08/17 09:11:10;;;;;;;;;23.80;23.40;;;;;22.02;67.89;100366.28;5093629;27;47554;-47
2022/08/17 09:13:42;;;;;;;;;26.80;25.20;;;;;22.05;68.07;100362.88;5092479;27;45349;-45
2022/08/17 09:16:15;;;;;;;;;19.20;19.20;;;;;22.01;67.83;100364.63;5092941;27;45543;-45
2022/08/17 09:18:50;;;;;;;;;23.40;20.80;;;;;21.65;67.09;100329.56;5092847;27;45412;-48
2022/08/17 09:21:30;;;;;;;;;26.00;24.60;;;;;21.89;67.72;100375.41;5081599;27;45449;-48
2022/08/17 09:24:19;;;;;;;;;17.40;17.40;;;;;21.89;67.73;100376.22;5093518;27;45402;-45
2022/08/17 09:26:48;;;;;;;;;18.60;17.40;;;;;21.89;67.77;100378.19;5093528;27;45548;-47
2022/08/17 09:29:15;;;;;;;;;22.00;19.40;;;;;21.86;67.76;100368.44;5103794;27;45654;-47
2022/08/17 09:31:54;;;;;;;;;24.40;22.60;;;;;21.74;67.72;100338.16;5093343;27;46474;-47
2022/08/17 09:34:39;;;;;;;;;24.60;22.40;;;;;21.87;67.23;100350.53;5093354;27;45348;-47
2022/08/17 09:37:19;;;;;;;;;24.80;22.00;;;;;21.87;67.34;100367.31;5092358;27;45860;-46
2022/08/17 09:40:10;;;;;;;;;24.40;22.60;;;;;21.62;67.34;100357.25;5092451;27;45453;-48
2022/08/17 09:42:44;;;;;;;;;26.40;24.00;;;;;21.61;68.22;100355.59;5082116;27;45924;-51
2022/08/17 09:45:36;;;;;;;;;18.40;17.20;;;;;21.72;68.38;100365.50;5093239;27;45373;-48
2022/08/17 09:48:17;;;;;;;;;23.00;21.40;;;;;21.80;67.90;100367.69;5081901;27;45568;-50
2022/08/17 09:51:05;;;;;;;;;25.60;23.60;;;;;21.75;67.76;100362.16;5093394;27;45792;-48
2022/08/17 09:53:31;;;;;;;;;24.00;22.60;;;;;21.86;67.53;100389.94;5092410;27;45935;-47
2022/08/17 09:55:59;;;;;;;;;25.75;24.75;;;;;21.88;67.76;100401.66;5093190;27;45822;-48
2022/08/17 09:58:48;;;;;;;;;25.80;23.40;;;;;21.85;67.66;100396.66;5075408;27;45776;-50
2022/08/17 10:01:34;;;;;;;;;24.40;24.00;;;;;21.68;67.35;100372.81;5113482;27;45512;-48
2022/08/17 10:04:18;;;;;;;;;24.60;19.40;;;;;21.88;67.38;100419.25;5110900;27;46184;-48
2022/08/17 10:07:05;;;;;;;;;22.20;21.60;;;;;21.89;67.58;100406.13;5092634;27;45434;-46
2022/08/17 10:09:39;;;;;;;;;24.20;22.80;;;;;21.77;67.36;100389.78;5122775;27;45519;-47
2022/08/17 10:12:15;;;;;;;;;25.20;24.20;;;;;21.65;67.48;100371.44;5111984;27;45581;-46
2022/08/17 10:15:02;;;;;;;;;27.20;25.00;;;;;21.91;67.13;100417.81;5091932;27;46643;-47
2022/08/17 10:17:35;;;;;;;;;25.00;24.60;;;;;21.68;67.93;100372.81;5091936;27;45434;-48
2022/08/17 10:20:16;;;;;;;;;29.40;28.20;;;;;22.01;67.45;100406.53;5080674;27;45854;-50
2022/08/17 10:28:38;;;;;;;;;28.80;27.60;;;;;22.05;67.17;100418.78;5105336;27;45573;-48
2022/08/17 10:31:04;;;;;;;;;19.80;19.80;;;;;22.06;67.21;100412.06;5091187;27;45486;-49
2022/08/17 10:33:37;;;;;;;;;25.00;25.00;;;;;22.03;67.00;100398.69;5108645;27;46050;-50
2022/08/17 10:36:10;;;;;;;;;27.40;25.60;;;;;22.06;67.22;100395.31;5092507;27;45426;-50
2022/08/17 10:38:50;;;;;;;;;27.20;27.20;;;;;22.10;66.86;100397.50;5108520;27;45448;-47
2022/08/17 10:41:32;;;;;;;;;25.80;22.20;;;;;22.09;67.24;100393.03;5107491;27;45466;-51
2022/08/17 10:44:10;;;;;;;;;25.60;23.80;;;;;22.00;66.98;100367.72;5091240;27;45511;-49
2022/08/17 10:46:50;;;;;;;;;27.60;24.60;;;;;22.03;66.92;100376.34;5090986;27;45716;-49
2022/08/17 10:49:16;;;;;;;;;29.40;27.40;;;;;22.19;66.99;100399.31;5091258;27;45481;-46
2022/08/17 10:51:42;;;;;;;;;27.75;26.50;;;;;22.13;66.74;100392.13;5091995;27;46090;-51
2022/08/17 10:54:40;;;;;;;;;31.25;26.50;;;;;22.26;66.88;100414.91;5091558;27;45510;-49
2022/08/17 10:57:35;;;;;;;;;27.60;27.20;;;;;22.26;66.83;100412.94;5074541;27;45833;-47
2022/08/17 11:00:14;;;;;;;;;28.00;27.20;;;;;22.24;66.84;100415.19;5091675;27;45375;-48
2022/08/17 11:02:48;;;;;;;;;30.20;26.20;;;;;22.06;66.93;100370.16;5092341;27;45546;-46
2022/08/17 11:05:52;;;;;;;;;25.40;24.40;;;;;22.36;66.60;100405.56;5090645;27;45800;-47
2022/08/17 11:08:25;;;;;;;;;28.00;26.60;;;;;22.43;66.41;100403.22;5082432;27;45808;-47
2022/08/17 11:10:56;;;;;;;;;30.20;24.60;;;;;22.35;66.04;100371.16;5110778;27;45428;-46
2022/08/17 11:13:26;;;;;;;;;29.20;28.20;;;;;22.58;65.38;100380.66;5109741;27;45407;-46
2022/08/17 11:16:07;;;;;;;;;27.20;26.00;;;;;22.71;65.42;100395.00;5096394;27;45164;-52
2022/08/17 11:18:56;;;;;;;;;27.60;25.80;;;;;22.87;65.19;100387.22;5094565;27;47519;-46
2022/08/17 11:21:54;;;;;;;;;33.20;30.20;;;;;23.12;64.28;100380.34;5094663;27;45382;-45
2022/08/17 11:24:29;;;;;;;;;31.20;30.20;;;;;23.33;63.67;100387.63;5111654;27;45482;-46
2022/08/17 11:27:05;;;;;;;;;34.00;31.00;;;;;23.19;62.72;100356.75;5096316;27;45459;-50
2022/08/17 11:29:35;;;;;;;;;30.00;28.60;;;;;23.62;62.61;100406.13;5111994;27;46554;-47
2022/08/17 11:32:12;;;;;;;;;32.40;31.40;;;;;23.81;61.99;100364.03;5094330;27;45361;-48
2022/08/17 11:34:40;;;;;;;;;28.20;26.20;;;;;24.30;61.38;100403.69;5094853;27;45381;-45
2022/08/17 11:37:40;;;;;;;;;27.80;26.80;;;;;24.56;60.45;100408.72;5094720;27;45601;-46
2022/08/17 11:40:20;;;;;;;;;32.40;31.60;;;;;24.75;59.90;100407.72;5084247;27;46108;-48
2022/08/17 11:42:56;;;;;;;;;30.00;30.00;;;;;24.86;59.28;100411.16;5094625;27;45352;-47
2022/08/17 11:45:43;;;;;;;;;29.80;27.60;;;;;25.08;58.92;100420.75;5066668;27;45585;-45
2022/08/17 11:54:01;;;;;;;;;27.20;24.40;;;;;25.10;58.65;100401.59;5106521;27;46116;-46
2022/08/17 11:56:34;;;;;;;;;32.80;29.60;;;;;24.89;58.20;100402.94;5132195;27;45403;-46
2022/08/17 11:58:59;;;;;;;;;27.80;27.40;;;;;24.52;59.22;100390.88;5116490;27;45522;-47
2022/08/17 12:01:28;;;;;;;;;35.00;30.00;;;;;24.47;59.41;100416.22;5103037;27;46669;-49
2022/08/17 12:04:20;;;;;;;;;33.20;31.80;;;;;24.27;60.46;100414.69;5110829;27;45755;-46
2022/08/17 12:06:58;;;;;;;;;28.20;27.20;;;;;23.99;60.78;100383.84;5093294;27;45450;-47
2022/08/17 12:09:28;;;;;;;;;33.80;31.00;;;;;24.02;60.71;100416.84;5092972;27;45433;-46
2022/08/17 12:12:02;;;;;;;;;29.00;26.00;;;;;23.89;61.66;100419.34;5131241;27;46572;-48
2022/08/17 12:14:31;;;;;;;;;28.80;28.40;;;;;23.92;61.36;100415.09;5109077;27;45415;-46
2022/08/17 12:17:05;;;;;;;;;24.20;24.20;;;;;23.99;61.01;100415.50;5081275;27;45342;-45
2022/08/17 12:19:32;;;;;;;;;24.20;23.00;;;;;24.10;60.98;100416.16;5097863;27;45501;-48
2022/08/17 12:22:01;;;;;;;;;30.40;28.60;;;;;24.10;60.82;100404.94;5098687;27;46434;-48
2022/08/17 12:24:35;;;;;;;;;27.80;26.60;;;;;24.35;60.46;100433.59;5093957;27;46363;-50
2022/08/17 12:27:03;;;;;;;;;29.60;26.20;;;;;24.37;60.14;100422.88;5106029;27;45404;-49
2022/08/17 12:29:29;;;;;;;;;30.80;30.20;;;;;24.40;59.46;100435.44;5118035;27;45296;-49
2022/08/17 12:31:55;;;;;;;;;30.80;29.60;;;;;24.40;59.53;100424.22;5115018;27;45608;-51
2022/08/17 12:34:25;;;;;;;;;35.75;29.50;;;;;24.59;59.05;100427.72;5118329;27;45318;-48
2022/08/17 12:36:52;;;;;;;;;29.60;26.40;;;;;24.89;58.32;100430.16;5117466;27;45455;-49
2022/08/17 12:39:19;;;;;;;;;28.60;27.20;;;;;24.97;56.76;100415.38;5100334;27;45654;-47
2022/08/17 12:41:46;;;;;;;;;31.60;25.20;;;;;25.13;57.04;100429.84;5097863;27;46589;-46
2022/08/17 12:44:14;;;;;;;;;35.00;30.80;;;;;25.08;57.29;100417.94;5118162;27;45407;-49
2022/08/17 12:46:45;;;;;;;;;28.00;27.00;;;;;25.20;56.70;100425.78;5116471;27;45441;-48
2022/08/17 12:49:18;;;;;;;;;26.60;24.40;;;;;25.24;56.51;100416.38;5118889;27;45222;-52
2022/08/17 12:51:44;;;;;;;;;21.40;21.00;;;;;25.29;56.19;100398.59;5103090;27;46784;-48
2022/08/17 12:54:45;;;;;;;;;23.00;23.00;;;;;25.28;56.10;100375.28;5095745;27;45416;-48
2022/08/17 12:57:19;;;;;;;;;29.40;27.80;;;;;25.48;55.59;100378.72;5073697;27;45546;-49
2022/08/17 12:59:48;;;;;;;;;27.60;26.80;;;;;25.67;55.81;100405.78;5097730;27;45523;-45
2022/08/17 13:02:29;;;;;;;;;24.80;23.40;;;;;25.74;55.11;100410.91;5095813;27;46041;-45
2022/08/17 13:04:56;;;;;;;;;30.00;26.60;;;;;25.80;54.75;100393.59;5097622;27;45501;-46
2022/08/17 13:07:30;;;;;;;;;22.60;22.20;;;;;25.88;54.86;100388.34;5112295;27;45407;-50
2022/08/17 13:09:55;;;;;;;;;23.20;23.20;;;;;26.06;54.17;100395.69;5105307;27;45356;-47
2022/08/17 13:12:29;;;;;;;;;29.50;26.75;;;;;26.18;53.80;100397.03;5076517;27;47584;-47
2022/08/17 13:14:56;;;;;;;;;19.20;19.20;;;;;26.27;53.59;100389.47;5095103;27;46329;-51
2022/08/17 13:17:33;;;;;;;;;21.60;21.20;;;;;26.33;52.54;100388.16;5073991;27;45533;-47
2022/08/17 13:19:59;;;;;;;;;23.00;22.00;;;;;26.37;52.66;100368.66;5094151;27;45921;-49
2022/08/17 13:22:25;;;;;;;;;24.50;23.50;;;;;26.48;52.20;100364.38;5091041;27;46795;-48
2022/08/17 13:24:55;;;;;;;;;25.50;23.75;;;;;26.48;51.38;100347.50;5090591;27;45981;-49
2022/08/17 13:27:22;;;;;;;;;19.20;19.20;;;;;26.78;51.23;100375.78;5090034;27;45767;-51
2022/08/17 13:29:54;;;;;;;;;24.20;21.00;;;;;26.92;51.01;100380.44;5091685;27;45894;-48
2022/08/17 13:32:22;;;;;;;;;19.40;18.40;;;;;27.05;50.58;100367.34;5107183;27;45870;-47
2022/08/17 13:34:55;;;;;;;;;21.80;20.40;;;;;27.25;50.43;100368.63;5107744;27;45448;-45
2022/08/17 13:39:54;;;;;;;;;22.60;21.60;;;;;27.82;48.75;100363.81;5103019;27;45417;-45
2022/08/17 13:42:40;;;;;;;;;18.20;18.20;;;;;28.19;48.27;100353.97;5108800;27;45451;-47
2022/08/17 13:45:38;;;;;;;;;19.60;17.40;;;;;29.17;45.79;100357.69;5113230;27;45504;-45
2022/08/17 13:48:20;;;;;;;;;21.40;20.80;;;;;29.52;44.56;100357.34;5091618;27;45478;-47
2022/08/17 13:50:55;;;;;;;;;14.00;14.00;;;;;29.94;42.90;100349.81;5074464;27;45800;-48
2022/08/17 13:53:24;;;;;;;;;19.80;16.80;;;;;30.20;42.82;100349.44;5116892;27;46231;-49
2022/08/17 13:56:07;;;;;;;;;16.20;15.40;;;;;30.99;41.30;100357.88;5116439;27;45934;-45
2022/08/17 13:58:56;;;;;;;;;15.40;14.20;;;;;31.92;39.01;100342.50;5118249;27;45309;-45
2022/08/17 14:01:38;;;;;;;;;17.00;17.00;;;;;33.18;37.10;100336.28;5117539;27;45819;-46
2022/08/17 14:04:08;;;;;;;;;15.00;15.00;;;;;34.06;34.65;100340.25;5117613;27;45413;-46
2022/08/17 14:06:49;;;;;;;;;16.00;15.80;;;;;34.89;35.07;100334.00;5116731;27;45420;-46
2022/08/17 14:09:15;;;;;;;;;15.20;15.00;;;;;35.21;33.13;100313.56;5116140;27;45398;-49
2022/08/17 14:11:41;;;;;;;;;18.00;16.75;;;;;35.81;31.76;100319.41;5097440;27;45375;-48
2022/08/17 14:14:07;;;;;;;;;14.75;14.75;;;;;36.43;31.60;100308.38;5096894;27;45616;-47
2022/08/17 14:16:32;;;;;;;;;13.75;13.75;;;;;37.11;30.44;100295.53;5097344;27;45281;-47
2022/08/17 14:18:58;;;;;;;;;15.00;13.75;;;;;37.81;29.71;100292.28;5097711;27;45786;-46
2022/08/17 14:21:23;;;;;;;;;13.75;13.75;;;;;38.35;29.31;100274.13;5096947;27;45282;-48
2022/08/17 14:23:50;;;;;;;;;16.00;12.75;;;;;38.81;28.25;100290.72;5097144;27;46373;-47
2022/08/17 14:26:15;;;;;;;;;15.20;12.80;;;;;38.88;28.20;100300.09;5092516;27;45427;-46
2022/08/17 14:28:41;;;;;;;;;13.50;13.50;;;;;38.67;27.58;100301.03;5102491;27;46105;-48
2022/08/17 14:31:09;;;;;;;;;11.75;11.75;;;;;37.42;29.42;100290.25;5117149;27;45468;-46
2022/08/17 14:33:35;;;;;;;;;14.80;13.80;;;;;36.83;30.08;100306.50;5107155;27;46419;-44
2022/08/17 14:36:00;;;;;;;;;15.50;14.50;;;;;36.88;29.11;100300.38;5116270;27;45326;-46
2022/08/17 14:38:26;;;;;;;;;14.75;14.75;;;;;36.85;29.59;100289.75;5115894;27;45610;-45
2022/08/17 14:40:52;;;;;;;;;17.20;15.80;;;;;37.08;28.94;100308.59;5117963;27;45565;-45
2022/08/17 14:43:19;;;;;;;;;17.00;16.00;;;;;37.36;29.41;100312.72;5116736;27;46748;-45
2022/08/17 14:45:44;;;;;;;;;14.60;14.60;;;;;37.50;28.07;100308.22;5116926;27;45465;-49
2022/08/17 14:48:10;;;;;;;;;20.50;17.75;;;;;37.05;30.12;100309.38;5117075;27;45424;-47
2022/08/17 14:50:40;;;;;;;;;16.50;16.50;;;;;36.60;29.16;100301.91;5117418;27;45523;-47
2022/08/17 14:53:07;;;;;;;;;16.60;16.00;;;;;36.51;28.91;100287.19;5116617;27;46771;-48
2022/08/17 14:55:33;;;;;;;;;13.40;13.40;;;;;35.93;29.34;100293.41;5116912;27;45406;-47
2022/08/17 14:57:58;;;;;;;;;13.75;13.00;;;;;35.58;30.04;100291.09;5117537;27;45314;-48
2022/08/17 15:00:25;;;;;;;;;14.50;11.50;;;;;35.65;30.59;100297.66;5117506;27;45390;-46
2022/08/17 15:02:55;;;;;;;;;13.60;12.60;;;;;35.21;29.66;100295.66;5117139;27;46902;-46
2022/08/17 15:05:30;;;;;;;;;16.40;16.40;;;;;34.71;30.66;100282.50;5117105;27;45216;-46
2022/08/17 15:07:56;;;;;;;;;11.80;11.80;;;;;34.71;31.00;100293.88;5117736;27;45293;-46
2022/08/17 15:10:22;;;;;;;;;16.20;16.20;;;;;34.90;31.02;100307.16;5109703;27;45526;-46
2022/08/17 15:12:47;;;;;;;;;14.75;14.75;;;;;35.22;30.37;100303.00;5096563;27;45919;-48
2022/08/17 15:15:14;;;;;;;;;15.75;14.75;;;;;35.45;30.14;100305.66;5096468;27;45302;-45
2022/08/17 15:17:41;;;;;;;;;13.60;12.60;;;;;35.62;30.92;100306.22;5096102;27;45517;-48
2022/08/17 15:20:09;;;;;;;;;16.20;15.20;;;;;35.71;30.55;100318.13;5096932;27;45394;-50
2022/08/17 15:22:34;;;;;;;;;14.60;13.20;;;;;35.68;30.87;100328.28;5094809;27;45505;-45
2022/08/17 15:25:04;;;;;;;;;12.50;10.25;;;;;35.66;30.92;100336.44;5096182;27;45325;-48
2022/08/17 15:27:30;;;;;;;;;16.40;14.60;;;;;34.92;31.09;100318.13;5096264;27;45310;-46
2022/08/17 15:29:55;;;;;;;;;14.75;14.75;;;;;33.96;32.70;100317.25;5096858;27;45348;-46
2022/08/17 15:32:27;;;;;;;;;14.00;14.00;;;;;33.20;34.29;100322.50;5095892;27;46426;-46
2022/08/17 15:34:55;;;;;;;;;17.60;16.60;;;;;32.64;34.93;100325.44;5096447;27;45479;-47
2022/08/17 15:37:22;;;;;;;;;15.00;15.00;;;;;32.47;35.97;100326.72;5095977;27;45476;-46
2022/08/17 15:39:47;;;;;;;;;17.60;15.40;;;;;32.56;35.78;100326.50;5096335;27;45394;-46
2022/08/17 15:42:13;;;;;;;;;16.25;13.25;;;;;32.19;35.84;100334.19;5096157;27;46587;-46
2022/08/17 15:44:38;;;;;;;;;18.50;17.50;;;;;31.83;36.86;100338.19;5097185;27;45284;-48
2022/08/17 15:47:04;;;;;;;;;15.25;14.25;;;;;31.34;37.78;100346.72;5100103;27;45197;-48
2022/08/17 15:49:30;;;;;;;;;15.00;15.00;;;;;30.81;38.65;100352.50;5100404;27;45517;-46
2022/08/17 15:51:55;;;;;;;;;13.75;13.75;;;;;30.96;38.72;100346.03;5099408;27;46054;-46
2022/08/17 15:54:21;;;;;;;;;18.75;15.00;;;;;31.47;37.71;100346.63;5099686;27;45257;-46
2022/08/17 15:56:46;;;;;;;;;17.25;17.25;;;;;31.41;37.98;100345.25;5115548;27;45285;-46
2022/08/17 15:59:12;;;;;;;;;14.25;14.25;;;;;31.17;37.95;100347.84;5100156;27;45190;-45
2022/08/17 16:01:37;;;;;;;;;19.50;17.50;;;;;30.68;38.48;100324.22;5099443;27;45338;-47
2022/08/17 16:04:03;;;;;;;;;17.25;15.50;;;;;30.61;39.64;100343.81;5099173;27;45232;-51
2022/08/17 16:06:28;;;;;;;;;15.50;14.50;;;;;30.83;38.24;100350.13;5098853;27;45266;-47
2022/08/17 16:08:54;;;;;;;;;15.50;15.00;;;;;31.14;37.76;100330.75;5099933;27;45525;-46
2022/08/17 16:11:21;;;;;;;;;15.50;15.50;;;;;31.59;36.71;100340.03;5114562;27;45968;-47
2022/08/17 16:13:46;;;;;;;;;17.40;15.80;;;;;31.91;36.48;100348.56;5136078;27;45326;-47
2022/08/17 16:16:12;;;;;;;;;16.25;16.25;;;;;31.57;36.95;100348.09;5120341;27;45880;-51
2022/08/17 16:18:38;;;;;;;;;18.00;17.00;;;;;31.45;37.10;100349.81;5120319;27;45363;-48
2022/08/17 16:21:29;;;;;;;;;15.50;15.50;;;;;31.73;37.61;100351.75;5119546;27;45854;-46
2022/08/17 16:23:59;;;;;;;;;14.20;14.20;;;;;31.86;34.98;100355.31;5119449;27;45306;-45
2022/08/17 16:26:25;;;;;;;;;11.20;11.20;;;;;31.81;35.34;100347.06;5109211;27;45256;-46
2022/08/17 16:28:51;;;;;;;;;12.80;11.60;;;;;31.86;35.34;100349.63;5073041;27;45469;-47
2022/08/17 16:31:17;;;;;;;;;9.50;9.50;;;;;31.94;34.90;100347.00;5091984;27;45840;-47
2022/08/17 16:33:42;;;;;;;;;14.25;12.50;;;;;31.95;34.89;100346.63;5096004;27;45710;-45
2022/08/17 16:36:08;;;;;;;;;11.00;11.00;;;;;32.02;35.25;100338.25;5100759;27;45454;-47
2022/08/17 16:38:34;;;;;;;;;12.25;12.25;;;;;31.83;35.20;100329.66;5112237;27;45370;-46
2022/08/17 16:41:00;;;;;;;;;11.20;9.20;;;;;31.44;36.42;100338.84;5112791;27;45925;-48
2022/08/17 16:43:25;;;;;;;;;12.50;12.50;;;;;31.12;37.10;100345.28;5112329;27;45551;-47
2022/08/17 16:45:51;;;;;;;;;13.25;13.25;;;;;30.79;37.06;100344.34;5093206;27;45768;-45
2022/08/17 16:48:17;;;;;;;;;13.75;11.25;;;;;30.39;37.65;100334.69;5094821;27;45879;-47
2022/08/17 16:50:42;;;;;;;;;12.25;11.25;;;;;30.53;37.41;100347.63;5094414;27;46583;-46
2022/08/17 16:53:10;;;;;;;;;12.25;11.00;;;;;30.65;37.10;100350.41;5110195;27;45708;-44
2022/08/17 16:55:35;;;;;;;;;14.40;12.00;;;;;30.81;37.74;100347.69;5113480;27;45494;-45
2022/08/17 16:58:04;;;;;;;;;8.25;8.25;;;;;30.90;36.35;100333.34;5092035;27;45722;-50
2022/08/17 17:00:30;;;;;;;;;10.80;10.80;;;;;31.00;36.63;100326.31;5092174;27;46738;-45
2022/08/17 17:02:57;;;;;;;;;13.00;13.00;;;;;31.25;36.05;100337.50;5113769;27;45499;-46
2022/08/17 17:05:48;;;;;;;;;14.00;14.00;;;;;31.33;37.39;100344.25;5091981;27;45560;-49
2022/08/17 17:08:32;;;;;;;;;12.60;9.40;;;;;31.19;37.61;100344.63;5109314;27;45495;-47
2022/08/17 17:10:58;;;;;;;;;13.40;11.00;;;;;31.09;38.13;100352.50;5102792;27;45499;-47
2022/08/17 17:13:26;;;;;;;;;14.00;14.00;;;;;30.74;39.90;100358.81;5130683;27;45448;-46
2022/08/17 17:15:55;;;;;;;;;15.00;14.80;;;;;30.24;40.30;100373.03;5113641;27;45775;-45
2022/08/17 17:18:25;;;;;;;;;12.00;12.00;;;;;29.72;42.17;100388.69;5112973;27;45514;-46
2022/08/17 17:20:55;;;;;;;;;11.20;10.20;;;;;29.15;44.51;100385.47;5103682;27;46758;-48
2022/08/17 17:23:53;;;;;;;;;13.60;10.00;;;;;28.78;45.85;100398.25;5094415;27;45456;-51
2022/08/17 17:26:41;;;;;;;;;12.40;12.40;;;;;28.32;47.13;100403.72;5113050;27;45678;-48
2022/08/17 17:29:17;;;;;;;;;14.00;11.40;;;;;27.91;48.92;100405.25;5092363;27;45609;-48
2022/08/17 17:32:19;;;;;;;;;15.80;13.40;;;;;27.58;49.12;100413.16;5091394;27;47919;-53
2022/08/17 17:34:47;;;;;;;;;14.00;12.00;;;;;27.36;50.26;100414.16;5078365;27;45452;-47
2022/08/17 17:37:27;;;;;;;;;10.20;9.20;;;;;27.12;49.98;100420.34;5109328;27;45429;-52
2022/08/17 17:39:55;;;;;;;;;7.00;7.00;;;;;26.95;51.23;100409.91;5091957;27;45360;-46
2022/08/17 17:42:23;;;;;;;;;14.80;13.00;;;;;26.96;50.77;100426.50;5090683;27;46182;-51
2022/08/17 17:44:57;;;;;;;;;16.80;14.20;;;;;26.66;51.26;100398.97;5075101;27;45385;-49
2022/08/17 17:47:23;;;;;;;;;11.80;11.80;;;;;26.71;51.61;100428.09;5091825;27;45490;-49
2022/08/17 17:49:48;;;;;;;;;11.25;11.00;;;;;26.41;51.91;100394.94;5090979;27;45467;-49
2022/08/17 17:52:29;;;;;;;;;12.50;11.00;;;;;26.49;52.10;100443.94;5091161;27;46260;-48
2022/08/17 17:55:03;;;;;;;;;11.80;11.80;;;;;26.38;52.21;100444.28;5093092;27;45442;-51
2022/08/17 17:57:59;;;;;;;;;24.80;21.80;;;;;26.33;52.60;100447.25;5089893;27;45717;-47
2022/08/17 18:00:29;;;;;;;;;15.00;15.00;;;;;26.09;52.96;100428.75;5078575;27;45545;-47
2022/08/17 18:03:32;;;;;;;;;16.60;12.40;;;;;26.18;52.83;100453.25;5090866;27;45610;-47
2022/08/17 18:06:23;;;;;;;;;16.80;14.20;;;;;26.22;53.12;100463.59;5064403;27;45481;-47
2022/08/17 18:09:30;;;;;;;;;14.80;12.80;;;;;26.31;53.02;100457.16;5063420;27;45685;-47
2022/08/17 18:12:15;;;;;;;;;18.40;15.60;;;;;26.32;53.25;100459.66;5010653;28;45629;-46
2022/08/17 18:14:50;;;;;;;;;14.00;13.00;;;;;26.30;52.12;100456.31;5082202;27;47608;-46
2022/08/17 18:17:17;;;;;;;;;27.60;23.80;;;;;26.11;52.12;100448.13;5075476;27;45478;-45
2022/08/17 18:19:45;;;;;;;;;43.00;35.20;;;;;25.80;52.55;100454.59;5092854;27;45548;-46
2022/08/17 18:22:17;;;;;;;;;27.00;25.80;;;;;25.65;52.80;100489.53;5092388;27;45595;-47
2022/08/17 18:24:48;;;;;;;;;16.00;16.00;;;;;25.68;53.39;100498.16;5107784;27;46781;-46
2022/08/17 18:27:22;;;;;;;;;19.40;17.20;;;;;25.77;53.79;100508.66;5079455;27;45652;-47
2022/08/17 18:29:49;;;;;;;;;20.00;14.80;;;;;25.63;53.90;100481.47;5090688;27;45436;-49
2022/08/17 18:32:22;;;;;;;;;16.60;16.60;;;;;25.74;53.78;100515.75;5091576;27;45917;-46
2022/08/17 18:34:51;;;;;;;;;17.20;16.00;;;;;25.62;53.39;100505.09;5091780;27;46529;-46
2022/08/17 18:37:33;;;;;;;;;15.40;14.40;;;;;25.60;54.42;100503.75;5091101;27;45864;-47
2022/08/17 18:40:13;;;;;;;;;15.20;15.20;;;;;25.64;54.30;100511.22;5091894;27;45435;-51
2022/08/17 18:42:38;;;;;;;;;16.20;15.20;;;;;25.66;53.84;100519.34;5091266;27;45512;-51
2022/08/17 18:45:04;;;;;;;;;17.00;17.00;;;;;25.37;54.35;100512.97;5091707;27;46429;-48
2022/08/17 18:47:30;;;;;;;;;15.25;13.00;;;;;25.28;54.60;100509.25;5091155;27;45806;-48
2022/08/17 18:50:15;;;;;;;;;15.25;14.50;;;;;25.38;54.59;100519.41;5092288;27;45600;-49
2022/08/17 18:52:40;;;;;;;;;14.40;14.40;;;;;25.43;55.24;100519.28;5091263;27;45518;-52
2022/08/17 18:55:14;;;;;;;;;14.75;13.25;;;;;25.36;55.08;100518.91;5090882;27;45807;-47
2022/08/17 18:57:48;;;;;;;;;11.80;10.80;;;;;25.31;55.38;100511.44;5089954;27;45763;-46
2022/08/17 19:00:14;;;;;;;;;15.40;15.40;;;;;25.36;56.01;100511.31;5090869;27;45534;-47
2022/08/17 19:02:50;;;;;;;;;21.80;20.20;;;;;25.17;56.13;100503.06;5092050;27;45392;-46
2022/08/17 19:05:34;;;;;;;;;25.80;24.80;;;;;25.12;56.26;100501.19;5090362;27;46942;-49
2022/08/17 19:08:22;;;;;;;;;22.60;19.40;;;;;25.13;55.07;100502.03;5085392;27;46041;-49
2022/08/17 19:11:11;;;;;;;;;13.40;13.40;;;;;25.14;54.79;100496.09;5091662;27;45474;-48
2022/08/17 19:13:42;;;;;;;;;15.20;14.20;;;;;24.96;53.69;100457.81;5081614;27;45902;-48
2022/08/17 19:16:27;;;;;;;;;24.20;16.40;;;;;25.10;54.04;100502.66;5090472;27;45930;-49
2022/08/17 19:19:12;;;;;;;;;13.00;13.00;;;;;25.07;53.59;100498.50;5092006;27;45481;-52
2022/08/17 19:21:40;;;;;;;;;9.80;9.80;;;;;25.04;53.49;100494.34;5091101;27;45431;-49